Sichem Manila — 9HA3324 — position and weather

sailwx.info

Track history (hours):
 
Tides and Currents Weather Stations Pressure Air Temp Water Temp Dewpoint Dewpoint Depression Visibility Wind Speed Wind Dir Waves Ship Positions

Sichem Manila

Last reported at 2017-Sep-21 12:30 UTC. Time now 2017-Sep-21 12:34 UTC.
Position N 44°18' E 008°49'.

Length 129 m; draft 5 m.

Type: Tanker. MMSI: 229432000.

Date/timePositionNaut miles runAvg speedWind from/ knotsBaromVisibWave heightAir tempDewpointWater temp
2017-Sep-21 12:30N 44°18' E 008°49'4 7.6
2017-Sep-21 12:00N 44°15' E 008°51'713.5
2017-Sep-21 11:30N 44°09' E 008°56'713.4
2017-Sep-21 11:00N 44°03' E 009°01'713.4
2017-Sep-21 10:30N 43°58' E 009°06'713.4
2017-Sep-21 10:00N 43°52' E 009°12'713.4
2017-Sep-21 09:30N 43°46' E 009°15'713.3
2017-Sep-21 09:00N 43°40' E 009°18'612.6
2017-Sep-21 08:30N 43°34' E 009°21'713.2
2017-Sep-21 08:00N 43°28' E 009°25'713.0
2017-Sep-21 07:30N 43°22' E 009°28'612.9
2017-Sep-21 07:01N 43°16' E 009°31'712.7
2017-Sep-21 06:30N 43°10' E 009°35'612.4
2017-Sep-21 05:59N 43°04' E 009°38'713.3
2017-Sep-21 05:27N 42°57' E 009°41'2113.2
2017-Sep-21 03:52N 42°37' E 009°48'1212.9
2017-Sep-21 02:54N 42°25' E 009°52'36110.9
2017-Sep-19 17:43N 36°59' E 013°14'211.5
2017-Sep-19 17:30N 36°58' E 013°17'611.2
2017-Sep-19 17:00N 36°55' E 013°23'511.0
2017-Sep-19 16:30N 36°52' E 013°29'510.6
2017-Sep-19 16:00N 36°49' E 013°34'510.6
2017-Sep-19 15:30N 36°46' E 013°40'611.2
2017-Sep-19 15:01N 36°43' E 013°45'2111.3
2017-Sep-19 13:10N 36°31' E 014°06'211.8
2017-Sep-19 12:59N 36°30' E 014°08'611.8
2017-Sep-19 12:30N 36°27' E 014°14'611.7
2017-Sep-19 12:00N 36°24' E 014°21'612.2
2017-Sep-19 11:30N 36°23' E 014°29'612.6
2017-Sep-19 11:00N 36°22' E 014°36'612.8
2017-Sep-19 10:30N 36°20' E 014°44'712.7
2017-Sep-19 09:57N 36°18' E 014°52'612.8
2017-Sep-19 09:27N 36°16' E 014°60'612.7
2017-Sep-19 09:00N 36°15' E 015°07'6712.5
2017-Sep-19 03:39N 36°09' E 016°30'513.0
2017-Sep-19 03:17N 36°09' E 016°36'312.8
2017-Sep-19 03:00N 36°09' E 016°40'4512.7
2017-Sep-18 23:30N 36°07' E 017°35'10813.1
2017-Sep-18 15:12N 36°02' E 019°49'19 9.3
2017-Sep-18 13:12N 36°02' E 020°12'16012.6
2017-Sep-18 00:28N 36°19' E 023°29'813.2
2017-Sep-17 23:52N 36°26' E 023°34'1313.6
2017-Sep-17 22:56N 36°38' E 023°40'613.7
2017-Sep-17 22:30N 36°43' E 023°43'1113.6
2017-Sep-17 21:42N 36°54' E 023°42'213.3
2017-Sep-17 21:30N 36°57' E 023°42'612.4
2017-Sep-17 21:00N 37°03' E 023°42'612.6
2017-Sep-17 20:30N 37°09' E 023°42'612.5
2017-Sep-17 20:00N 37°16' E 023°43'612.8
2017-Sep-17 19:30N 37°22' E 023°43'612.7
2017-Sep-17 19:00N 37°28' E 023°43'713.0
2017-Sep-17 18:30N 37°35' E 023°43'612.9
2017-Sep-17 18:00N 37°41' E 023°41'713.4
2017-Sep-17 17:30N 37°47' E 023°38'613.0
2017-Sep-17 17:01N 37°54' E 023°36'4 8.1
2017-Sep-17 16:31N 37°58' E 023°35'0 0.0
2017-Sep-17 16:00N 37°58' E 023°35'0 0.0
2017-Sep-17 15:30N 37°58' E 023°35'0 0.0
2017-Sep-17 14:59N 37°58' E 023°35'0 0.0
2017-Sep-17 14:29N 37°58' E 023°35'0 0.0
2017-Sep-17 13:59N 37°58' E 023°35'0 0.0
2017-Sep-17 13:29N 37°58' E 023°35'0 0.0
2017-Sep-17 12:59N 37°58' E 023°35'0 0.0
2017-Sep-17 12:29N 37°58' E 023°35'0 0.0
2017-Sep-17 11:59N 37°58' E 023°35'0 0.0
2017-Sep-17 11:29N 37°58' E 023°35'0 0.0
2017-Sep-17 10:59N 37°58' E 023°35'0 0.0
2017-Sep-17 10:29N 37°58' E 023°35'0 0.0
2017-Sep-17 09:59N 37°58' E 023°35'0 0.0
2017-Sep-17 09:29N 37°58' E 023°35'0 0.0
2017-Sep-17 08:59N 37°58' E 023°35'0 0.0
2017-Sep-17 08:29N 37°58' E 023°35'0 0.0
2017-Sep-17 07:59N 37°58' E 023°35'0 0.0
2017-Sep-17 07:29N 37°58' E 023°35'0 0.0
2017-Sep-17 06:59N 37°58' E 023°35'0 0.0
2017-Sep-17 06:29N 37°58' E 023°35'0 0.0
2017-Sep-17 05:59N 37°58' E 023°35'0 0.0
2017-Sep-17 05:29N 37°58' E 023°35'0 0.0
2017-Sep-17 04:59N 37°58' E 023°35'0 0.0
2017-Sep-17 04:29N 37°58' E 023°35'0 0.0
2017-Sep-17 03:59N 37°58' E 023°35'0 0.0
2017-Sep-17 03:29N 37°58' E 023°35'0 0.0
2017-Sep-17 02:59N 37°58' E 023°35'0 0.0
2017-Sep-17 02:29N 37°58' E 023°35'0 0.0
2017-Sep-17 01:59N 37°58' E 023°35'0 0.0
2017-Sep-17 01:29N 37°58' E 023°35'0 0.0
2017-Sep-17 00:59N 37°58' E 023°35'0 0.0
2017-Sep-17 00:29N 37°58' E 023°35'0 0.0
2017-Sep-16 23:59N 37°58' E 023°35'0 0.0
2017-Sep-16 23:29N 37°58' E 023°35'0 0.0
2017-Sep-16 22:59N 37°58' E 023°35'0 0.0
2017-Sep-16 22:29N 37°58' E 023°35'0 0.0
2017-Sep-16 21:59N 37°58' E 023°35'0 0.0
2017-Sep-16 21:29N 37°58' E 023°35'0 0.0
2017-Sep-16 20:59N 37°58' E 023°35'0 0.0
2017-Sep-16 20:29N 37°58' E 023°35'0 0.0
2017-Sep-16 19:59N 37°58' E 023°35'0 0.0
2017-Sep-16 19:29N 37°58' E 023°35'0 0.0
2017-Sep-16 18:59N 37°58' E 023°35'0 0.0
2017-Sep-16 18:29N 37°58' E 023°35'0 0.0
2017-Sep-16 17:59N 37°58' E 023°35'0 0.0
2017-Sep-16 17:29N 37°58' E 023°35'0 0.0
2017-Sep-16 16:59N 37°58' E 023°35'0 0.0
2017-Sep-16 16:29N 37°58' E 023°35'0 0.0
2017-Sep-16 15:59N 37°58' E 023°35'0 0.0
2017-Sep-16 15:29N 37°58' E 023°35'0 0.0
2017-Sep-16 14:59N 37°58' E 023°35'0 0.0
2017-Sep-16 14:29N 37°58' E 023°35'0 0.0
2017-Sep-16 13:59N 37°58' E 023°35'0 0.0
2017-Sep-16 13:29N 37°58' E 023°35'0 0.0
2017-Sep-16 12:59N 37°58' E 023°35'0 0.0
2017-Sep-16 12:29N 37°58' E 023°35'0 0.0
2017-Sep-16 11:59N 37°58' E 023°35'0 0.0
2017-Sep-16 11:29N 37°58' E 023°35'0 0.0
2017-Sep-16 10:59N 37°58' E 023°35'0 0.0
2017-Sep-16 10:29N 37°58' E 023°35'0 0.0
2017-Sep-16 09:59N 37°58' E 023°35'0 0.0
2017-Sep-16 09:29N 37°58' E 023°35'0 0.0
2017-Sep-16 08:59N 37°58' E 023°35'0 0.0
2017-Sep-16 08:29N 37°58' E 023°35'0 0.0
2017-Sep-16 07:59N 37°58' E 023°35'0 0.0
2017-Sep-16 07:29N 37°58' E 023°35'0 0.0
2017-Sep-16 06:59N 37°58' E 023°35'0 0.0
2017-Sep-16 06:29N 37°58' E 023°35'0 0.0
2017-Sep-16 05:59N 37°58' E 023°35'0 0.0
2017-Sep-16 05:29N 37°58' E 023°35'0 0.0
2017-Sep-16 04:59N 37°58' E 023°35'0 0.0
2017-Sep-16 04:29N 37°58' E 023°35'0 0.0
2017-Sep-16 03:59N 37°58' E 023°35'0 0.0
2017-Sep-16 03:29N 37°58' E 023°35'0 0.0
2017-Sep-16 02:59N 37°58' E 023°35'0 0.0
2017-Sep-16 02:29N 37°58' E 023°35'0 0.0
2017-Sep-16 01:59N 37°58' E 023°35'0 0.0
2017-Sep-16 01:29N 37°58' E 023°35'0 0.0
2017-Sep-16 00:59N 37°58' E 023°35'0 0.0
2017-Sep-16 00:29N 37°58' E 023°35'0 0.0
2017-Sep-15 23:59N 37°58' E 023°35'0 0.0
2017-Sep-15 23:29N 37°58' E 023°35'0 0.0
2017-Sep-15 22:59N 37°58' E 023°35'0 0.0
2017-Sep-15 22:29N 37°58' E 023°35'0 0.0
2017-Sep-15 21:59N 37°58' E 023°35'0 0.0
2017-Sep-15 21:29N 37°58' E 023°35'0 0.0
2017-Sep-15 20:59N 37°58' E 023°35'0 0.0
2017-Sep-15 20:29N 37°58' E 023°35'0 0.0
2017-Sep-15 19:59N 37°58' E 023°35'0 0.0
2017-Sep-15 19:29N 37°58' E 023°35'0 0.0
2017-Sep-15 18:59N 37°58' E 023°35'0 0.0
2017-Sep-15 18:29N 37°58' E 023°35'0 0.0
2017-Sep-15 17:59N 37°58' E 023°35'0 0.0
2017-Sep-15 17:29N 37°58' E 023°35'0 0.0
2017-Sep-15 16:59N 37°58' E 023°35'0 0.0
2017-Sep-15 16:29N 37°58' E 023°35'0 0.0
2017-Sep-15 15:59N 37°58' E 023°35'0 0.0
2017-Sep-15 15:29N 37°58' E 023°35'0 0.0
2017-Sep-15 14:59N 37°58' E 023°35'0 0.1
2017-Sep-15 14:30N 37°58' E 023°35'2 3.7
2017-Sep-15 14:00N 37°56' E 023°35'0 0.9
2017-Sep-15 13:30N 37°55' E 023°35'0 0.8
2017-Sep-15 13:00N 37°55' E 023°35'2 4.5
2017-Sep-15 12:30N 37°54' E 023°33'0 0.8
2017-Sep-15 12:00N 37°54' E 023°33'0 0.1
2017-Sep-15 11:30N 37°54' E 023°33'0 0.0
2017-Sep-15 11:00N 37°54' E 023°33'0 0.0
2017-Sep-15 10:30N 37°54' E 023°33'0 0.0
2017-Sep-15 10:00N 37°54' E 023°33'0 0.0
2017-Sep-15 09:30N 37°54' E 023°33'0 0.0
2017-Sep-15 09:00N 37°54' E 023°33'0 0.1
2017-Sep-15 08:30N 37°54' E 023°33'0 0.0
2017-Sep-15 08:00N 37°54' E 023°33'0 0.0
2017-Sep-15 07:30N 37°54' E 023°33'0 0.0
2017-Sep-15 07:00N 37°54' E 023°33'0 0.0
2017-Sep-15 06:29N 37°54' E 023°33'0 0.0
2017-Sep-15 05:58N 37°54' E 023°33'0 0.1
2017-Sep-15 05:30N 37°54' E 023°33'0 0.1
2017-Sep-15 05:00N 37°54' E 023°33'0 0.0
2017-Sep-15 04:30N 37°54' E 023°33'0 0.0
2017-Sep-15 04:00N 37°54' E 023°33'0 0.0
2017-Sep-15 03:30N 37°54' E 023°33'0 0.0
2017-Sep-15 03:00N 37°54' E 023°33'0 0.0
2017-Sep-15 02:30N 37°54' E 023°33'0 0.0
2017-Sep-15 02:00N 37°54' E 023°33'0 0.0
2017-Sep-15 01:30N 37°54' E 023°33'0 0.0
2017-Sep-15 01:00N 37°54' E 023°33'0 0.0
2017-Sep-15 00:30N 37°54' E 023°33'0 0.0
2017-Sep-15 00:00N 37°54' E 023°33'0 0.0
2017-Sep-14 23:30N 37°54' E 023°33'0 0.0
2017-Sep-14 23:00N 37°54' E 023°33'0 0.0
2017-Sep-14 22:30N 37°54' E 023°33'0 0.1
2017-Sep-14 22:00N 37°54' E 023°33'0 0.1
2017-Sep-14 21:30N 37°54' E 023°33'0 0.1
2017-Sep-14 21:00N 37°54' E 023°33'0 0.1
2017-Sep-14 20:30N 37°54' E 023°33'0 0.0
2017-Sep-14 20:00N 37°54' E 023°33'0 0.1
2017-Sep-14 19:30N 37°54' E 023°33'0 0.0
2017-Sep-14 19:00N 37°54' E 023°33'0 0.1
2017-Sep-14 18:30N 37°54' E 023°33'0 0.1
2017-Sep-14 18:00N 37°54' E 023°33'0 0.0
2017-Sep-14 17:30N 37°54' E 023°33'0 0.0
2017-Sep-14 17:00N 37°54' E 023°33'0 0.1
2017-Sep-14 16:30N 37°54' E 023°33'0 0.0
2017-Sep-14 16:00N 37°54' E 023°33'0 0.0
2017-Sep-14 15:30N 37°54' E 023°33'0 0.1
2017-Sep-14 15:00N 37°54' E 023°33'0 0.1
2017-Sep-14 14:30N 37°54' E 023°33'0 0.0
2017-Sep-14 14:00N 37°54' E 023°33'0 0.0
2017-Sep-14 13:30N 37°54' E 023°33'0 0.0
2017-Sep-14 13:00N 37°54' E 023°33'0 0.0
2017-Sep-14 12:30N 37°54' E 023°33'0 0.0
2017-Sep-14 12:00N 37°54' E 023°33'0 0.0
2017-Sep-14 11:30N 37°54' E 023°33'0 0.0
2017-Sep-14 11:00N 37°54' E 023°33'0 0.1
2017-Sep-14 10:30N 37°54' E 023°33'0 0.0
2017-Sep-14 10:00N 37°54' E 023°33'0 0.0
2017-Sep-14 09:30N 37°54' E 023°33'0 0.0
2017-Sep-14 09:00N 37°54' E 023°33'0 0.0
2017-Sep-14 08:30N 37°54' E 023°33'0 0.0
2017-Sep-14 08:00N 37°54' E 023°33'0 0.0
2017-Sep-14 07:30N 37°54' E 023°33'0 0.0
2017-Sep-14 07:00N 37°54' E 023°33'0 0.0
2017-Sep-14 06:30N 37°54' E 023°33'0 0.0
2017-Sep-14 06:00N 37°54' E 023°33'0 0.0
2017-Sep-14 05:30N 37°54' E 023°33'0 0.0
2017-Sep-14 05:00N 37°54' E 023°33'0 0.0
2017-Sep-14 04:30N 37°54' E 023°33'0 0.0
2017-Sep-14 04:00N 37°54' E 023°33'0 0.0
2017-Sep-14 03:30N 37°54' E 023°33'0 0.0
2017-Sep-14 02:57N 37°54' E 023°33'0 0.0
2017-Sep-14 02:30N 37°54' E 023°33'0 0.1
2017-Sep-14 02:00N 37°54' E 023°33'0 0.1
2017-Sep-14 01:30N 37°54' E 023°33'0 0.0
2017-Sep-14 01:00N 37°54' E 023°33'0 0.0
2017-Sep-14 00:30N 37°54' E 023°33'0 0.0
2017-Sep-14 00:00N 37°54' E 023°33'0 0.0
2017-Sep-13 23:30N 37°54' E 023°33'0 0.0
2017-Sep-13 23:00N 37°54' E 023°33'0 0.1
2017-Sep-13 22:30N 37°54' E 023°33'0 0.0
2017-Sep-13 22:00N 37°54' E 023°33'0 0.2
2017-Sep-13 21:30N 37°54' E 023°33'0 0.1
2017-Sep-13 21:00N 37°54' E 023°33'0 0.1
2017-Sep-13 20:27N 37°54' E 023°33'0 0.1
2017-Sep-13 20:00N 37°54' E 023°33'0 0.0
2017-Sep-13 19:30N 37°54' E 023°33'0 0.1
2017-Sep-13 19:00N 37°54' E 023°33'0 0.2
2017-Sep-13 18:30N 37°54' E 023°33'0 0.1
2017-Sep-13 18:00N 37°54' E 023°33'0 0.0
2017-Sep-13 17:30N 37°54' E 023°33'0 0.1
2017-Sep-13 17:00N 37°54' E 023°33'0 0.0
2017-Sep-13 16:30N 37°54' E 023°33'0 0.0
2017-Sep-13 15:57N 37°54' E 023°33'0 0.0
2017-Sep-13 15:30N 37°54' E 023°33'0 0.0
2017-Sep-13 15:00N 37°54' E 023°33'0 0.1
2017-Sep-13 14:30N 37°54' E 023°33'0 0.0
2017-Sep-13 14:00N 37°54' E 023°33'0 0.0
2017-Sep-13 13:30N 37°54' E 023°33'0 0.0
2017-Sep-13 13:00N 37°54' E 023°33'0 0.0
2017-Sep-13 12:30N 37°54' E 023°33'0 0.0
2017-Sep-13 12:00N 37°54' E 023°33'0 0.0
2017-Sep-13 11:30N 37°54' E 023°33'0 0.0
2017-Sep-13 11:00N 37°54' E 023°33'0 0.0
2017-Sep-13 10:30N 37°54' E 023°33'0 0.0
2017-Sep-13 10:00N 37°54' E 023°33'0 0.0
2017-Sep-13 09:30N 37°54' E 023°33'0 0.0
2017-Sep-13 09:00N 37°54' E 023°33'0 0.0
2017-Sep-13 08:30N 37°54' E 023°33'0 0.1
2017-Sep-13 08:00N 37°54' E 023°33'0 0.1
2017-Sep-13 07:30N 37°54' E 023°33'0 0.0
2017-Sep-13 07:00N 37°54' E 023°33'0 0.1
2017-Sep-13 06:30N 37°54' E 023°33'0 0.0
2017-Sep-13 06:01N 37°54' E 023°33'0 0.0
2017-Sep-13 05:30N 37°54' E 023°33'1 1.5
2017-Sep-13 05:00N 37°53' E 023°33'3 5.2
2017-Sep-13 04:31N 37°53' E 023°37'2 4.5
2017-Sep-13 04:01N 37°51' E 023°39'611.4
2017-Sep-13 03:30N 37°46' E 023°42'611.6
2017-Sep-13 03:00N 37°41' E 023°45'611.4
2017-Sep-13 02:30N 37°35' E 023°47'37911.2
2017-Sep-11 16:40N 34°10' E 030°20'212.5
2017-Sep-11 16:29N 34°09' E 030°23'1512.0
2017-Sep-11 15:16N 34°04' E 030°40'312.1
2017-Sep-11 15:01N 34°03' E 030°43'612.0
2017-Sep-11 14:30N 34°01' E 030°50'611.6
2017-Sep-11 14:00N 33°59' E 030°57'611.6
2017-Sep-11 13:30N 33°57' E 031°03'611.8
2017-Sep-11 13:01N 33°55' E 031°10'  
Track history (hours):
 
Tides and Currents Weather Stations Pressure Air Temp Water Temp Dewpoint Dewpoint Depression Visibility Wind Speed Wind Dir Waves Ship Positions

Sichem Manila

Last reported at 2017-Sep-21 12:30 UTC. Time now 2017-Sep-21 12:34 UTC.
Position N 44°18' E 008°49'.

Length 129 m; draft 5 m.

Type: Tanker. MMSI: 229432000.

Date/timePositionNaut miles runAvg speedWind from/ knotsBaromVisibWave heightAir tempDewpointWater temp
2017-Sep-21 12:30N 44°18' E 008°49'4 7.6
2017-Sep-21 12:00N 44°15' E 008°51'713.5
2017-Sep-21 11:30N 44°09' E 008°56'713.4
2017-Sep-21 11:00N 44°03' E 009°01'713.4
2017-Sep-21 10:30N 43°58' E 009°06'713.4
2017-Sep-21 10:00N 43°52' E 009°12'713.4
2017-Sep-21 09:30N 43°46' E 009°15'713.3
2017-Sep-21 09:00N 43°40' E 009°18'612.6
2017-Sep-21 08:30N 43°34' E 009°21'713.2
2017-Sep-21 08:00N 43°28' E 009°25'713.0
2017-Sep-21 07:30N 43°22' E 009°28'612.9
2017-Sep-21 07:01N 43°16' E 009°31'712.7
2017-Sep-21 06:30N 43°10' E 009°35'612.4
2017-Sep-21 05:59N 43°04' E 009°38'713.3
2017-Sep-21 05:27N 42°57' E 009°41'2113.2
2017-Sep-21 03:52N 42°37' E 009°48'1212.9
2017-Sep-21 02:54N 42°25' E 009°52'36110.9
2017-Sep-19 17:43N 36°59' E 013°14'211.5
2017-Sep-19 17:30N 36°58' E 013°17'611.2
2017-Sep-19 17:00N 36°55' E 013°23'511.0
2017-Sep-19 16:30N 36°52' E 013°29'510.6
2017-Sep-19 16:00N 36°49' E 013°34'510.6
2017-Sep-19 15:30N 36°46' E 013°40'611.2
2017-Sep-19 15:01N 36°43' E 013°45'2111.3
2017-Sep-19 13:10N 36°31' E 014°06'211.8
2017-Sep-19 12:59N 36°30' E 014°08'611.8
2017-Sep-19 12:30N 36°27' E 014°14'611.7
2017-Sep-19 12:00N 36°24' E 014°21'612.2
2017-Sep-19 11:30N 36°23' E 014°29'612.6
2017-Sep-19 11:00N 36°22' E 014°36'612.8
2017-Sep-19 10:30N 36°20' E 014°44'712.7
2017-Sep-19 09:57N 36°18' E 014°52'612.8
2017-Sep-19 09:27N 36°16' E 014°60'612.7
2017-Sep-19 09:00N 36°15' E 015°07'6712.5
2017-Sep-19 03:39N 36°09' E 016°30'513.0
2017-Sep-19 03:17N 36°09' E 016°36'312.8
2017-Sep-19 03:00N 36°09' E 016°40'4512.7
2017-Sep-18 23:30N 36°07' E 017°35'10813.1
2017-Sep-18 15:12N 36°02' E 019°49'19 9.3
2017-Sep-18 13:12N 36°02' E 020°12'16012.6
2017-Sep-18 00:28N 36°19' E 023°29'813.2
2017-Sep-17 23:52N 36°26' E 023°34'1313.6
2017-Sep-17 22:56N 36°38' E 023°40'613.7
2017-Sep-17 22:30N 36°43' E 023°43'1113.6
2017-Sep-17 21:42N 36°54' E 023°42'213.3
2017-Sep-17 21:30N 36°57' E 023°42'612.4
2017-Sep-17 21:00N 37°03' E 023°42'612.6
2017-Sep-17 20:30N 37°09' E 023°42'612.5
2017-Sep-17 20:00N 37°16' E 023°43'612.8
2017-Sep-17 19:30N 37°22' E 023°43'612.7
2017-Sep-17 19:00N 37°28' E 023°43'713.0
2017-Sep-17 18:30N 37°35' E 023°43'612.9
2017-Sep-17 18:00N 37°41' E 023°41'713.4
2017-Sep-17 17:30N 37°47' E 023°38'613.0
2017-Sep-17 17:01N 37°54' E 023°36'4 8.1
2017-Sep-17 16:31N 37°58' E 023°35'0 0.0
2017-Sep-17 16:00N 37°58' E 023°35'0 0.0
2017-Sep-17 15:30N 37°58' E 023°35'0 0.0
2017-Sep-17 14:59N 37°58' E 023°35'0 0.0
2017-Sep-17 14:29N 37°58' E 023°35'0 0.0
2017-Sep-17 13:59N 37°58' E 023°35'0 0.0
2017-Sep-17 13:29N 37°58' E 023°35'0 0.0
2017-Sep-17 12:59N 37°58' E 023°35'0 0.0
2017-Sep-17 12:29N 37°58' E 023°35'0 0.0
2017-Sep-17 11:59N 37°58' E 023°35'0 0.0
2017-Sep-17 11:29N 37°58' E 023°35'0 0.0
2017-Sep-17 10:59N 37°58' E 023°35'0 0.0
2017-Sep-17 10:29N 37°58' E 023°35'0 0.0
2017-Sep-17 09:59N 37°58' E 023°35'0 0.0
2017-Sep-17 09:29N 37°58' E 023°35'0 0.0
2017-Sep-17 08:59N 37°58' E 023°35'0 0.0
2017-Sep-17 08:29N 37°58' E 023°35'0 0.0
2017-Sep-17 07:59N 37°58' E 023°35'0 0.0
2017-Sep-17 07:29N 37°58' E 023°35'0 0.0
2017-Sep-17 06:59N 37°58' E 023°35'0 0.0
2017-Sep-17 06:29N 37°58' E 023°35'0 0.0
2017-Sep-17 05:59N 37°58' E 023°35'0 0.0
2017-Sep-17 05:29N 37°58' E 023°35'0 0.0
2017-Sep-17 04:59N 37°58' E 023°35'0 0.0
2017-Sep-17 04:29N 37°58' E 023°35'0 0.0
2017-Sep-17 03:59N 37°58' E 023°35'0 0.0
2017-Sep-17 03:29N 37°58' E 023°35'0 0.0
2017-Sep-17 02:59N 37°58' E 023°35'0 0.0
2017-Sep-17 02:29N 37°58' E 023°35'0 0.0
2017-Sep-17 01:59N 37°58' E 023°35'0 0.0
2017-Sep-17 01:29N 37°58' E 023°35'0 0.0
2017-Sep-17 00:59N 37°58' E 023°35'0 0.0
2017-Sep-17 00:29N 37°58' E 023°35'0 0.0
2017-Sep-16 23:59N 37°58' E 023°35'0 0.0
2017-Sep-16 23:29N 37°58' E 023°35'0 0.0
2017-Sep-16 22:59N 37°58' E 023°35'0 0.0
2017-Sep-16 22:29N 37°58' E 023°35'0 0.0
2017-Sep-16 21:59N 37°58' E 023°35'0 0.0
2017-Sep-16 21:29N 37°58' E 023°35'0 0.0
2017-Sep-16 20:59N 37°58' E 023°35'0 0.0
2017-Sep-16 20:29N 37°58' E 023°35'0 0.0
2017-Sep-16 19:59N 37°58' E 023°35'0 0.0
2017-Sep-16 19:29N 37°58' E 023°35'0 0.0
2017-Sep-16 18:59N 37°58' E 023°35'0 0.0
2017-Sep-16 18:29N 37°58' E 023°35'0 0.0
2017-Sep-16 17:59N 37°58' E 023°35'0 0.0
2017-Sep-16 17:29N 37°58' E 023°35'0 0.0
2017-Sep-16 16:59N 37°58' E 023°35'0 0.0
2017-Sep-16 16:29N 37°58' E 023°35'0 0.0
2017-Sep-16 15:59N 37°58' E 023°35'0 0.0
2017-Sep-16 15:29N 37°58' E 023°35'0 0.0
2017-Sep-16 14:59N 37°58' E 023°35'0 0.0
2017-Sep-16 14:29N 37°58' E 023°35'0 0.0
2017-Sep-16 13:59N 37°58' E 023°35'0 0.0
2017-Sep-16 13:29N 37°58' E 023°35'0 0.0
2017-Sep-16 12:59N 37°58' E 023°35'0 0.0
2017-Sep-16 12:29N 37°58' E 023°35'0 0.0
2017-Sep-16 11:59N 37°58' E 023°35'0 0.0
2017-Sep-16 11:29N 37°58' E 023°35'0 0.0
2017-Sep-16 10:59N 37°58' E 023°35'0 0.0
2017-Sep-16 10:29N 37°58' E 023°35'0 0.0
2017-Sep-16 09:59N 37°58' E 023°35'0 0.0
2017-Sep-16 09:29N 37°58' E 023°35'0 0.0
2017-Sep-16 08:59N 37°58' E 023°35'0 0.0
2017-Sep-16 08:29N 37°58' E 023°35'0 0.0
2017-Sep-16 07:59N 37°58' E 023°35'0 0.0
2017-Sep-16 07:29N 37°58' E 023°35'0 0.0
2017-Sep-16 06:59N 37°58' E 023°35'0 0.0
2017-Sep-16 06:29N 37°58' E 023°35'0 0.0
2017-Sep-16 05:59N 37°58' E 023°35'0 0.0
2017-Sep-16 05:29N 37°58' E 023°35'0 0.0
2017-Sep-16 04:59N 37°58' E 023°35'0 0.0
2017-Sep-16 04:29N 37°58' E 023°35'0 0.0
2017-Sep-16 03:59N 37°58' E 023°35'0 0.0
2017-Sep-16 03:29N 37°58' E 023°35'0 0.0
2017-Sep-16 02:59N 37°58' E 023°35'0 0.0
2017-Sep-16 02:29N 37°58' E 023°35'0 0.0
2017-Sep-16 01:59N 37°58' E 023°35'0 0.0
2017-Sep-16 01:29N 37°58' E 023°35'0 0.0
2017-Sep-16 00:59N 37°58' E 023°35'0 0.0
2017-Sep-16 00:29N 37°58' E 023°35'0 0.0
2017-Sep-15 23:59N 37°58' E 023°35'0 0.0
2017-Sep-15 23:29N 37°58' E 023°35'0 0.0
2017-Sep-15 22:59N 37°58' E 023°35'0 0.0
2017-Sep-15 22:29N 37°58' E 023°35'0 0.0
2017-Sep-15 21:59N 37°58' E 023°35'0 0.0
2017-Sep-15 21:29N 37°58' E 023°35'0 0.0
2017-Sep-15 20:59N 37°58' E 023°35'0 0.0
2017-Sep-15 20:29N 37°58' E 023°35'0 0.0
2017-Sep-15 19:59N 37°58' E 023°35'0 0.0
2017-Sep-15 19:29N 37°58' E 023°35'0 0.0
2017-Sep-15 18:59N 37°58' E 023°35'0 0.0
2017-Sep-15 18:29N 37°58' E 023°35'0 0.0
2017-Sep-15 17:59N 37°58' E 023°35'0 0.0
2017-Sep-15 17:29N 37°58' E 023°35'0 0.0
2017-Sep-15 16:59N 37°58' E 023°35'0 0.0
2017-Sep-15 16:29N 37°58' E 023°35'0 0.0
2017-Sep-15 15:59N 37°58' E 023°35'0 0.0
2017-Sep-15 15:29N 37°58' E 023°35'0 0.0
2017-Sep-15 14:59N 37°58' E 023°35'0 0.1
2017-Sep-15 14:30N 37°58' E 023°35'2 3.7
2017-Sep-15 14:00N 37°56' E 023°35'0 0.9
2017-Sep-15 13:30N 37°55' E 023°35'0 0.8
2017-Sep-15 13:00N 37°55' E 023°35'2 4.5
2017-Sep-15 12:30N 37°54' E 023°33'0 0.8
2017-Sep-15 12:00N 37°54' E 023°33'0 0.1
2017-Sep-15 11:30N 37°54' E 023°33'0 0.0
2017-Sep-15 11:00N 37°54' E 023°33'0 0.0
2017-Sep-15 10:30N 37°54' E 023°33'0 0.0
2017-Sep-15 10:00N 37°54' E 023°33'0 0.0
2017-Sep-15 09:30N 37°54' E 023°33'0 0.0
2017-Sep-15 09:00N 37°54' E 023°33'0 0.1
2017-Sep-15 08:30N 37°54' E 023°33'0 0.0
2017-Sep-15 08:00N 37°54' E 023°33'0 0.0
2017-Sep-15 07:30N 37°54' E 023°33'0 0.0
2017-Sep-15 07:00N 37°54' E 023°33'0 0.0
2017-Sep-15 06:29N 37°54' E 023°33'0 0.0
2017-Sep-15 05:58N 37°54' E 023°33'0 0.1
2017-Sep-15 05:30N 37°54' E 023°33'0 0.1
2017-Sep-15 05:00N 37°54' E 023°33'0 0.0
2017-Sep-15 04:30N 37°54' E 023°33'0 0.0
2017-Sep-15 04:00N 37°54' E 023°33'0 0.0
2017-Sep-15 03:30N 37°54' E 023°33'0 0.0
2017-Sep-15 03:00N 37°54' E 023°33'0 0.0
2017-Sep-15 02:30N 37°54' E 023°33'0 0.0
2017-Sep-15 02:00N 37°54' E 023°33'0 0.0
2017-Sep-15 01:30N 37°54' E 023°33'0 0.0
2017-Sep-15 01:00N 37°54' E 023°33'0 0.0
2017-Sep-15 00:30N 37°54' E 023°33'0 0.0
2017-Sep-15 00:00N 37°54' E 023°33'0 0.0
2017-Sep-14 23:30N 37°54' E 023°33'0 0.0
2017-Sep-14 23:00N 37°54' E 023°33'0 0.0
2017-Sep-14 22:30N 37°54' E 023°33'0 0.1
2017-Sep-14 22:00N 37°54' E 023°33'0 0.1
2017-Sep-14 21:30N 37°54' E 023°33'0 0.1
2017-Sep-14 21:00N 37°54' E 023°33'0 0.1
2017-Sep-14 20:30N 37°54' E 023°33'0 0.0
2017-Sep-14 20:00N 37°54' E 023°33'0 0.1
2017-Sep-14 19:30N 37°54' E 023°33'0 0.0
2017-Sep-14 19:00N 37°54' E 023°33'0 0.1
2017-Sep-14 18:30N 37°54' E 023°33'0 0.1
2017-Sep-14 18:00N 37°54' E 023°33'0 0.0
2017-Sep-14 17:30N 37°54' E 023°33'0 0.0
2017-Sep-14 17:00N 37°54' E 023°33'0 0.1
2017-Sep-14 16:30N 37°54' E 023°33'0 0.0
2017-Sep-14 16:00N 37°54' E 023°33'0 0.0
2017-Sep-14 15:30N 37°54' E 023°33'0 0.1
2017-Sep-14 15:00N 37°54' E 023°33'0 0.1
2017-Sep-14 14:30N 37°54' E 023°33'0 0.0
2017-Sep-14 14:00N 37°54' E 023°33'0 0.0
2017-Sep-14 13:30N 37°54' E 023°33'0 0.0
2017-Sep-14 13:00N 37°54' E 023°33'0 0.0
2017-Sep-14 12:30N 37°54' E 023°33'0 0.0
2017-Sep-14 12:00N 37°54' E 023°33'0 0.0
2017-Sep-14 11:30N 37°54' E 023°33'0 0.0
2017-Sep-14 11:00N 37°54' E 023°33'0 0.1
2017-Sep-14 10:30N 37°54' E 023°33'0 0.0
2017-Sep-14 10:00N 37°54' E 023°33'0 0.0
2017-Sep-14 09:30N 37°54' E 023°33'0 0.0
2017-Sep-14 09:00N 37°54' E 023°33'0 0.0
2017-Sep-14 08:30N 37°54' E 023°33'0 0.0
2017-Sep-14 08:00N 37°54' E 023°33'0 0.0
2017-Sep-14 07:30N 37°54' E 023°33'0 0.0
2017-Sep-14 07:00N 37°54' E 023°33'0 0.0
2017-Sep-14 06:30N 37°54' E 023°33'0 0.0
2017-Sep-14 06:00N 37°54' E 023°33'0 0.0
2017-Sep-14 05:30N 37°54' E 023°33'0 0.0
2017-Sep-14 05:00N 37°54' E 023°33'0 0.0
2017-Sep-14 04:30N 37°54' E 023°33'0 0.0
2017-Sep-14 04:00N 37°54' E 023°33'0 0.0
2017-Sep-14 03:30N 37°54' E 023°33'0 0.0
2017-Sep-14 02:57N 37°54' E 023°33'0 0.0
2017-Sep-14 02:30N 37°54' E 023°33'0 0.1
2017-Sep-14 02:00N 37°54' E 023°33'0 0.1
2017-Sep-14 01:30N 37°54' E 023°33'0 0.0
2017-Sep-14 01:00N 37°54' E 023°33'0 0.0
2017-Sep-14 00:30N 37°54' E 023°33'0 0.0
2017-Sep-14 00:00N 37°54' E 023°33'0 0.0
2017-Sep-13 23:30N 37°54' E 023°33'0 0.0
2017-Sep-13 23:00N 37°54' E 023°33'0 0.1
2017-Sep-13 22:30N 37°54' E 023°33'0 0.0
2017-Sep-13 22:00N 37°54' E 023°33'0 0.2
2017-Sep-13 21:30N 37°54' E 023°33'0 0.1
2017-Sep-13 21:00N 37°54' E 023°33'0 0.1
2017-Sep-13 20:27N 37°54' E 023°33'0 0.1
2017-Sep-13 20:00N 37°54' E 023°33'0 0.0
2017-Sep-13 19:30N 37°54' E 023°33'0 0.1
2017-Sep-13 19:00N 37°54' E 023°33'0 0.2
2017-Sep-13 18:30N 37°54' E 023°33'0 0.1
2017-Sep-13 18:00N 37°54' E 023°33'0 0.0
2017-Sep-13 17:30N 37°54' E 023°33'0 0.1
2017-Sep-13 17:00N 37°54' E 023°33'0 0.0
2017-Sep-13 16:30N 37°54' E 023°33'0 0.0
2017-Sep-13 15:57N 37°54' E 023°33'0 0.0
2017-Sep-13 15:30N 37°54' E 023°33'0 0.0
2017-Sep-13 15:00N 37°54' E 023°33'0 0.1
2017-Sep-13 14:30N 37°54' E 023°33'0 0.0
2017-Sep-13 14:00N 37°54' E 023°33'0 0.0
2017-Sep-13 13:30N 37°54' E 023°33'0 0.0
2017-Sep-13 13:00N 37°54' E 023°33'0 0.0
2017-Sep-13 12:30N 37°54' E 023°33'0 0.0
2017-Sep-13 12:00N 37°54' E 023°33'0 0.0
2017-Sep-13 11:30N 37°54' E 023°33'0 0.0
2017-Sep-13 11:00N 37°54' E 023°33'0 0.0
2017-Sep-13 10:30N 37°54' E 023°33'0 0.0
2017-Sep-13 10:00N 37°54' E 023°33'0 0.0
2017-Sep-13 09:30N 37°54' E 023°33'0 0.0
2017-Sep-13 09:00N 37°54' E 023°33'0 0.0
2017-Sep-13 08:30N 37°54' E 023°33'0 0.1
2017-Sep-13 08:00N 37°54' E 023°33'0 0.1
2017-Sep-13 07:30N 37°54' E 023°33'0 0.0
2017-Sep-13 07:00N 37°54' E 023°33'0 0.1
2017-Sep-13 06:30N 37°54' E 023°33'0 0.0
2017-Sep-13 06:01N 37°54' E 023°33'0 0.0
2017-Sep-13 05:30N 37°54' E 023°33'1 1.5
2017-Sep-13 05:00N 37°53' E 023°33'3 5.2
2017-Sep-13 04:31N 37°53' E 023°37'2 4.5
2017-Sep-13 04:01N 37°51' E 023°39'611.4
2017-Sep-13 03:30N 37°46' E 023°42'611.6
2017-Sep-13 03:00N 37°41' E 023°45'611.4
2017-Sep-13 02:30N 37°35' E 023°47'37911.2
2017-Sep-11 16:40N 34°10' E 030°20'212.5
2017-Sep-11 16:29N 34°09' E 030°23'1512.0
2017-Sep-11 15:16N 34°04' E 030°40'312.1
2017-Sep-11 15:01N 34°03' E 030°43'612.0
2017-Sep-11 14:30N 34°01' E 030°50'611.6
2017-Sep-11 14:00N 33°59' E 030°57'611.6
2017-Sep-11 13:30N 33°57' E 031°03'611.8
2017-Sep-11 13:01N 33°55' E 031°10'  

Dump ship's entire track history